Frye Island, Maine
Current Conditions -  °F | °C
As of 11:55 PM on Monday 22 Dec 2014 (Local Time) from KLEW Reporting Station
Overcast Overcast  
Wind Chill: 26°   Ceiling: 600
Heat Index: 32°   Visibility: 6mi
Dew Point: 28°   Wind: 7mph
Humidity: 87%   Direction: 20°NNE
Pressure: 30.35"   Gusts: NA
Location:  43.9379°N, 70.4425°W
Report Text: KLEW 230455Z AUTO 02006KT 6SM OVC006 00/M02 A3035 RMK AO1
Loading
Personal Weather Stations






























Interactive Weather Map New forecast layout! Learn more

10-Day Weather Forecast

Advertisements
Track Severe Weather on mobile